sensor_id;sensor_type;location;lat;lon;timestamp;pressure;altitude;pressure_sealevel;temperature;humidity
8075;BME280;4080;42.676;23.372;2022-11-25T00:01:38;94860.41;;;7.02;100.00
8075;BME280;4080;42.676;23.372;2022-11-25T00:04:04;94858.59;;;7.03;100.00
8075;BME280;4080;42.676;23.372;2022-11-25T00:06:32;94858.53;;;6.98;100.00
8075;BME280;4080;42.676;23.372;2022-11-25T00:09:01;94861.41;;;6.96;100.00
8075;BME280;4080;42.676;23.372;2022-11-25T00:11:33;94861.38;;;6.91;100.00
8075;BME280;4080;42.676;23.372;2022-11-25T00:14:05;94861.34;;;6.86;100.00
8075;BME280;4080;42.676;23.372;2022-11-25T00:16:35;94866.88;;;6.90;100.00
8075;BME280;4080;42.676;23.372;2022-11-25T00:19:01;94868.16;;;6.87;100.00
8075;BME280;4080;42.676;23.372;2022-11-25T00:21:32;94877.84;;;6.87;100.00
8075;BME280;4080;42.676;23.372;2022-11-25T00:24:04;94878.66;;;6.87;100.00
8075;BME280;4080;42.676;23.372;2022-11-25T00:26:32;94869.44;;;6.84;100.00
8075;BME280;4080;42.676;23.372;2022-11-25T00:29:00;94869.19;;;6.86;100.00
8075;BME280;4080;42.676;23.372;2022-11-25T00:31:30;94867.06;;;6.83;100.00
8075;BME280;4080;42.676;23.372;2022-11-25T00:33:57;94873.59;;;6.80;100.00
8075;BME280;4080;42.676;23.372;2022-11-25T00:36:26;94878.06;;;6.80;100.00
8075;BME280;4080;42.676;23.372;2022-11-25T00:38:54;94868.59;;;6.79;100.00
8075;BME280;4080;42.676;23.372;2022-11-25T00:41:22;94848.00;;;6.66;100.00
8075;BME280;4080;42.676;23.372;2022-11-25T00:44:08;94871.22;;;6.79;100.00
8075;BME280;4080;42.676;23.372;2022-11-25T00:46:54;94871.22;;;6.79;100.00
8075;BME280;4080;42.676;23.372;2022-11-25T00:49:20;94866.25;;;6.77;100.00
8075;BME280;4080;42.676;23.372;2022-11-25T00:51:47;94869.66;;;6.78;100.00
8075;BME280;4080;42.676;23.372;2022-11-25T00:54:14;94835.84;;;6.54;100.00
8075;BME280;4080;42.676;23.372;2022-11-25T00:56:41;94866.72;;;6.74;100.00
8075;BME280;4080;42.676;23.372;2022-11-25T00:59:08;94873.84;;;6.79;100.00
8075;BME280;4080;42.676;23.372;2022-11-25T01:01:35;94875.19;;;6.81;100.00
8075;BME280;4080;42.676;23.372;2022-11-25T01:04:04;94882.25;;;6.81;100.00
8075;BME280;4080;42.676;23.372;2022-11-25T01:06:31;94870.44;;;6.78;100.00
8075;BME280;4080;42.676;23.372;2022-11-25T01:08:58;94881.19;;;6.77;100.00
8075;BME280;4080;42.676;23.372;2022-11-25T01:11:25;94872.19;;;6.73;100.00
8075;BME280;4080;42.676;23.372;2022-11-25T01:13:52;94877.50;;;6.78;100.00
8075;BME280;4080;42.676;23.372;2022-11-25T01:16:21;94878.84;;;6.80;100.00
8075;BME280;4080;42.676;23.372;2022-11-25T01:18:48;94877.25;;;6.79;100.00
8075;BME280;4080;42.676;23.372;2022-11-25T01:21:22;94878.06;;;6.80;100.00
8075;BME280;4080;42.676;23.372;2022-11-25T01:23:49;94878.31;;;6.78;100.00
8075;BME280;4080;42.676;23.372;2022-11-25T01:26:18;94877.25;;;6.79;100.00
8075;BME280;4080;42.676;23.372;2022-11-25T01:28:46;94879.88;;;6.79;100.00
8075;BME280;4080;42.676;23.372;2022-11-25T01:31:14;94879.63;;;6.81;100.00
8075;BME280;4080;42.676;23.372;2022-11-25T01:33:42;94875.19;;;6.81;100.00
8075;BME280;4080;42.676;23.372;2022-11-25T01:36:11;94874.41;;;6.81;100.00
8075;BME280;4080;42.676;23.372;2022-11-25T01:38:40;94869.16;;;6.81;100.00
8075;BME280;4080;42.676;23.372;2022-11-25T01:41:10;94868.13;;;6.82;100.00
8075;BME280;4080;42.676;23.372;2022-11-25T01:43:37;94863.91;;;6.81;100.00
8075;BME280;4080;42.676;23.372;2022-11-25T01:46:07;94852.94;;;6.84;100.00
8075;BME280;4080;42.676;23.372;2022-11-25T01:48:38;94847.09;;;6.77;100.00
8075;BME280;4080;42.676;23.372;2022-11-25T01:51:15;94847.69;;;6.84;100.00
8075;BME280;4080;42.676;23.372;2022-11-25T01:53:46;94849.00;;;6.87;100.00
8075;BME280;4080;42.676;23.372;2022-11-25T01:56:14;94849.56;;;6.89;100.00
8075;BME280;4080;42.676;23.372;2022-11-25T01:58:41;94848.28;;;6.91;100.00
8075;BME280;4080;42.676;23.372;2022-11-25T02:01:09;94844.56;;;6.87;100.00
8075;BME280;4080;42.676;23.372;2022-11-25T02:03:39;94848.03;;;6.93;100.00
8075;BME280;4080;42.676;23.372;2022-11-25T02:06:10;94854.56;;;6.90;100.00
8075;BME280;4080;42.676;23.372;2022-11-25T02:08:39;94857.72;;;6.92;100.00
8075;BME280;4080;42.676;23.372;2022-11-25T02:11:09;94864.53;;;6.93;100.00
8075;BME280;4080;42.676;23.372;2022-11-25T02:13:35;94849.00;;;6.87;100.00
8075;BME280;4080;42.676;23.372;2022-11-25T02:16:03;94865.63;;;6.97;100.00
8075;BME280;4080;42.676;23.372;2022-11-25T02:18:30;94866.41;;;6.98;100.00
8075;BME280;4080;42.676;23.372;2022-11-25T02:20:57;94874.03;;;6.99;100.00
8075;BME280;4080;42.676;23.372;2022-11-25T02:23:30;94847.47;;;6.91;100.00
8075;BME280;4080;42.676;23.372;2022-11-25T02:26:00;94854.59;;;6.95;100.00
8075;BME280;4080;42.676;23.372;2022-11-25T02:28:29;94867.75;;;7.00;100.00
8075;BME280;4080;42.676;23.372;2022-11-25T02:30:56;94876.41;;;7.01;100.00
8075;BME280;4080;42.676;23.372;2022-11-25T02:33:24;94883.47;;;7.00;100.00
8075;BME280;4080;42.676;23.372;2022-11-25T02:35:53;94879.53;;;6.98;100.00
8075;BME280;4080;42.676;23.372;2022-11-25T02:38:22;94878.72;;;6.97;100.00
8075;BME280;4080;42.676;23.372;2022-11-25T02:40:52;94838.38;;;6.71;100.00
8075;BME280;4080;42.676;23.372;2022-11-25T02:43:23;94875.06;;;6.98;100.00
8075;BME280;4080;42.676;23.372;2022-11-25T02:45:55;94877.69;;;6.98;100.00
8075;BME280;4080;42.676;23.372;2022-11-25T02:48:23;94842.41;;;6.79;100.00
8075;BME280;4080;42.676;23.372;2022-11-25T02:50:50;94870.63;;;6.99;100.00
8075;BME280;4080;42.676;23.372;2022-11-25T02:53:17;94880.31;;;6.98;100.00
8075;BME280;4080;42.676;23.372;2022-11-25T02:55:44;94878.47;;;6.99;100.00
8075;BME280;4080;42.676;23.372;2022-11-25T02:58:11;94880.84;;;7.00;100.00
8075;BME280;4080;42.676;23.372;2022-11-25T03:00:40;94872.41;;;6.93;100.00
8075;BME280;4080;42.676;23.372;2022-11-25T03:03:07;94840.75;;;6.73;100.00
8075;BME280;4080;42.676;23.372;2022-11-25T03:05:34;94879.22;;;6.94;100.00
8075;BME280;4080;42.676;23.372;2022-11-25T03:08:00;94884.19;;;6.91;100.00
8075;BME280;4080;42.676;23.372;2022-11-25T03:10:27;94887.09;;;6.94;100.00
8075;BME280;4080;42.676;23.372;2022-11-25T03:12:54;94892.88;;;6.96;100.00
8075;BME280;4080;42.676;23.372;2022-11-25T03:15:21;94893.09;;;6.90;100.00
8075;BME280;4080;42.676;23.372;2022-11-25T03:17:49;94890.72;;;6.88;100.00
8075;BME280;4080;42.676;23.372;2022-11-25T03:20:17;94885.19;;;6.84;100.00
8075;BME280;4080;42.676;23.372;2022-11-25T03:22:45;94896.44;;;6.85;100.00
8075;BME280;4080;42.676;23.372;2022-11-25T03:25:12;94850.84;;;6.59;100.00
8075;BME280;4080;42.676;23.372;2022-11-25T03:27:39;94900.59;;;6.81;100.00
8075;BME280;4080;42.676;23.372;2022-11-25T03:30:08;94894.81;;;6.79;100.00
8075;BME280;4080;42.676;23.372;2022-11-25T03:32:36;94903.72;;;6.78;100.00
8075;BME280;4080;42.676;23.372;2022-11-25T03:35:05;94907.63;;;6.75;100.00
8075;BME280;4080;42.676;23.372;2022-11-25T03:37:32;94899.19;;;6.73;100.00
8075;BME280;4080;42.676;23.372;2022-11-25T03:39:58;94909.69;;;6.73;100.00
8075;BME280;4080;42.676;23.372;2022-11-25T03:42:25;94917.31;;;6.75;100.00
8075;BME280;4080;42.676;23.372;2022-11-25T03:44:52;94911.50;;;6.73;100.00
8075;BME280;4080;42.676;23.372;2022-11-25T03:47:19;94910.16;;;6.70;100.00
8075;BME280;4080;42.676;23.372;2022-11-25T03:49:45;94918.81;;;6.71;100.00
8075;BME280;4080;42.676;23.372;2022-11-25T03:52:13;94920.34;;;6.67;100.00
8075;BME280;4080;42.676;23.372;2022-11-25T03:54:40;94923.22;;;6.65;100.00
8075;BME280;4080;42.676;23.372;2022-11-25T03:57:07;94921.03;;;6.57;100.00
8075;BME280;4080;42.676;23.372;2022-11-25T03:59:34;94931.81;;;6.61;100.00
8075;BME280;4080;42.676;23.372;2022-11-25T04:02:01;94923.59;;;6.52;100.00
8075;BME280;4080;42.676;23.372;2022-11-25T04:04:28;94934.88;;;6.52;100.00
8075;BME280;4080;42.676;23.372;2022-11-25T04:06:54;94939.03;;;6.48;100.00
8075;BME280;4080;42.676;23.372;2022-11-25T04:09:22;94931.66;;;6.45;100.00
8075;BME280;4080;42.676;23.372;2022-11-25T04:11:50;94927.84;;;6.36;100.00
8075;BME280;4080;42.676;23.372;2022-11-25T04:14:34;94936.81;;;6.40;100.00
8075;BME280;4080;42.676;23.372;2022-11-25T04:17:01;94934.13;;;6.35;100.00
8075;BME280;4080;42.676;23.372;2022-11-25T04:19:28;94945.09;;;6.32;100.00
8075;BME280;4080;42.676;23.372;2022-11-25T04:21:54;94939.53;;;6.29;100.00
8075;BME280;4080;42.676;23.372;2022-11-25T04:24:25;94955.75;;;6.26;100.00
8075;BME280;4080;42.676;23.372;2022-11-25T04:26:52;94958.38;;;6.26;100.00
8075;BME280;4080;42.676;23.372;2022-11-25T04:29:19;94954.34;;;6.18;100.00
8075;BME280;4080;42.676;23.372;2022-11-25T04:31:46;94965.91;;;6.22;100.00
8075;BME280;4080;42.676;23.372;2022-11-25T04:34:13;94966.41;;;6.19;100.00
8075;BME280;4080;42.676;23.372;2022-11-25T04:36:40;94969.03;;;6.19;100.00
8075;BME280;4080;42.676;23.372;2022-11-25T04:39:06;94970.06;;;6.18;100.00
8075;BME280;4080;42.676;23.372;2022-11-25T04:41:34;94971.34;;;6.15;100.00
8075;BME280;4080;42.676;23.372;2022-11-25T04:44:01;94979.66;;;6.12;100.00
8075;BME280;4080;42.676;23.372;2022-11-25T04:46:35;94986.94;;;6.10;100.00
8075;BME280;4080;42.676;23.372;2022-11-25T04:49:03;94990.34;;;6.11;100.00
8075;BME280;4080;42.676;23.372;2022-11-25T04:51:30;94980.28;;;6.03;100.00
8075;BME280;4080;42.676;23.372;2022-11-25T04:53:57;94974.19;;;5.97;100.00
8075;BME280;4080;42.676;23.372;2022-11-25T04:56:24;94997.66;;;6.09;100.00
8075;BME280;4080;42.676;23.372;2022-11-25T04:58:52;94996.31;;;6.06;100.00
8075;BME280;4080;42.676;23.372;2022-11-25T05:01:37;94991.31;;;6.05;100.00
8075;BME280;4080;42.676;23.372;2022-11-25T05:04:03;95002.81;;;6.04;100.00
8075;BME280;4080;42.676;23.372;2022-11-25T05:06:30;95007.03;;;6.05;100.00
8075;BME280;4080;42.676;23.372;2022-11-25T05:08:57;95013.84;;;6.06;100.00
8075;BME280;4080;42.676;23.372;2022-11-25T05:11:23;95013.06;;;6.05;100.00
8075;BME280;4080;42.676;23.372;2022-11-25T05:13:51;95020.91;;;6.05;100.00
8075;BME280;4080;42.676;23.372;2022-11-25T05:16:18;95024.56;;;6.04;100.00
8075;BME280;4080;42.676;23.372;2022-11-25T05:18:46;95028.53;;;6.07;100.00
8075;BME280;4080;42.676;23.372;2022-11-25T05:21:13;95033.53;;;6.08;100.00
8075;BME280;4080;42.676;23.372;2022-11-25T05:23:39;95035.13;;;6.09;100.00
8075;BME280;4080;42.676;23.372;2022-11-25T05:26:06;95028.28;;;6.08;100.00
8075;BME280;4080;42.676;23.372;2022-11-25T05:28:33;95031.69;;;6.09;100.00
8075;BME280;4080;42.676;23.372;2022-11-25T05:31:01;95034.09;;;6.10;100.00
8075;BME280;4080;42.676;23.372;2022-11-25T05:33:28;95047.97;;;6.11;100.00
8075;BME280;4080;42.676;23.372;2022-11-25T05:35:56;95051.72;;;6.15;100.00
8075;BME280;4080;42.676;23.372;2022-11-25T05:38:23;95047.97;;;6.11;100.00
8075;BME280;4080;42.676;23.372;2022-11-25T05:40:50;95056.47;;;6.18;100.00
8075;BME280;4080;42.676;23.372;2022-11-25T05:43:17;95053.38;;;6.21;100.00
8075;BME280;4080;42.676;23.372;2022-11-25T05:45:43;95063.47;;;6.29;100.00
8075;BME280;4080;42.676;23.372;2022-11-25T05:48:11;95061.63;;;6.30;100.00
8075;BME280;4080;42.676;23.372;2022-11-25T05:50:38;95060.44;;;6.37;100.00
8075;BME280;4080;42.676;23.372;2022-11-25T05:53:05;95066.88;;;6.46;100.00
8075;BME280;4080;42.676;23.372;2022-11-25T05:55:32;95072.19;;;6.51;100.00
8075;BME280;4080;42.676;23.372;2022-11-25T05:57:59;95075.56;;;6.69;100.00
8075;BME280;4080;42.676;23.372;2022-11-25T06:00:27;95059.72;;;7.46;100.00
8075;BME280;4080;42.676;23.372;2022-11-25T06:02:54;95090.31;;;8.43;100.00
8075;BME280;4080;42.676;23.372;2022-11-25T06:05:22;95101.41;;;8.50;100.00
8075;BME280;4080;42.676;23.372;2022-11-25T06:07:49;95078.53;;;8.19;100.00
8075;BME280;4080;42.676;23.372;2022-11-25T06:10:17;95102.13;;;8.14;100.00
8075;BME280;4080;42.676;23.372;2022-11-25T06:12:44;95111.59;;;8.42;100.00
8075;BME280;4080;42.676;23.372;2022-11-25T06:15:11;95108.03;;;8.95;100.00
8075;BME280;4080;42.676;23.372;2022-11-25T06:17:38;95113.19;;;9.27;100.00
8075;BME280;4080;42.676;23.372;2022-11-25T06:20:06;95106.34;;;9.21;100.00
8075;BME280;4080;42.676;23.372;2022-11-25T06:22:34;95125.88;;;9.40;100.00
8075;BME280;4080;42.676;23.372;2022-11-25T06:25:01;95118.59;;;9.57;100.00
8075;BME280;4080;42.676;23.372;2022-11-25T06:27:28;95122.81;;;9.58;100.00
8075;BME280;4080;42.676;23.372;2022-11-25T06:29:55;95130.63;;;9.38;100.00
8075;BME280;4080;42.676;23.372;2022-11-25T06:32:21;95132.81;;;9.04;100.00
8075;BME280;4080;42.676;23.372;2022-11-25T06:34:48;95132.09;;;8.77;100.00
8075;BME280;4080;42.676;23.372;2022-11-25T06:37:15;95141.19;;;8.59;100.00
8075;BME280;4080;42.676;23.372;2022-11-25T06:39:43;95145.75;;;8.36;100.00
8075;BME280;4080;42.676;23.372;2022-11-25T06:42:10;95153.97;;;8.23;100.00
8075;BME280;4080;42.676;23.372;2022-11-25T06:44:36;95153.34;;;8.11;100.00
8075;BME280;4080;42.676;23.372;2022-11-25T06:47:03;95146.97;;;8.02;100.00
8075;BME280;4080;42.676;23.372;2022-11-25T06:49:30;95160.06;;;7.97;100.00
8075;BME280;4080;42.676;23.372;2022-11-25T06:51:57;95153.34;;;7.84;100.00
8075;BME280;4080;42.676;23.372;2022-11-25T06:54:23;95159.03;;;7.76;100.00
8075;BME280;4080;42.676;23.372;2022-11-25T06:56:51;95167.22;;;7.79;100.00
8075;BME280;4080;42.676;23.372;2022-11-25T06:59:18;95164.81;;;7.78;100.00
8075;BME280;4080;42.676;23.372;2022-11-25T07:01:45;95171.84;;;7.72;100.00
8075;BME280;4080;42.676;23.372;2022-11-25T07:04:12;95170.81;;;7.73;100.00
8075;BME280;4080;42.676;23.372;2022-11-25T07:06:38;95176.63;;;7.75;100.00
8075;BME280;4080;42.676;23.372;2022-11-25T07:09:06;95169.63;;;7.64;100.00
8075;BME280;4080;42.676;23.372;2022-11-25T07:11:34;95189.75;;;7.75;100.00
8075;BME280;4080;42.676;23.372;2022-11-25T07:14:04;95180.34;;;7.79;100.00
8075;BME280;4080;42.676;23.372;2022-11-25T07:16:32;95175.13;;;7.85;100.00
8075;BME280;4080;42.676;23.372;2022-11-25T07:18:59;95179.91;;;7.88;100.00
8075;BME280;4080;42.676;23.372;2022-11-25T07:21:27;95181.22;;;7.90;100.00
8075;BME280;4080;42.676;23.372;2022-11-25T07:23:54;95186.31;;;7.97;100.00
8075;BME280;4080;42.676;23.372;2022-11-25T07:26:23;95181.63;;;7.99;100.00
8075;BME280;4080;42.676;23.372;2022-11-25T07:28:53;95186.88;;;7.99;100.00
8075;BME280;4080;42.676;23.372;2022-11-25T07:31:23;95180.56;;;8.00;100.00
8075;BME280;4080;42.676;23.372;2022-11-25T07:33:52;95180.13;;;8.08;100.00
8075;BME280;4080;42.676;23.372;2022-11-25T07:36:19;95183.34;;;8.15;100.00
8075;BME280;4080;42.676;23.372;2022-11-25T07:38:46;95186.00;;;8.20;100.00
8075;BME280;4080;42.676;23.372;2022-11-25T07:41:15;95183.44;;;8.25;100.00
8075;BME280;4080;42.676;23.372;2022-11-25T07:43:44;95196.09;;;8.28;100.00
8075;BME280;4080;42.676;23.372;2022-11-25T07:46:12;95196.22;;;8.38;100.00
8075;BME280;4080;42.676;23.372;2022-11-25T07:48:41;95186.50;;;8.39;100.00
8075;BME280;4080;42.676;23.372;2022-11-25T07:51:16;95206.06;;;8.53;100.00
8075;BME280;4080;42.676;23.372;2022-11-25T07:53:43;95164.00;;;8.53;100.00
8075;BME280;4080;42.676;23.372;2022-11-25T07:56:09;95205.16;;;9.44;100.00
8075;BME280;4080;42.676;23.372;2022-11-25T07:58:36;95208.38;;;10.18;100.00
8075;BME280;4080;42.676;23.372;2022-11-25T08:01:04;95208.50;;;10.84;100.00
8075;BME280;4080;42.676;23.372;2022-11-25T08:03:32;95228.72;;;11.60;100.00
8075;BME280;4080;42.676;23.372;2022-11-25T08:06:00;95201.13;;;12.02;100.00
8075;BME280;4080;42.676;23.372;2022-11-25T08:08:27;95228.09;;;12.53;97.22
8075;BME280;4080;42.676;23.372;2022-11-25T08:10:54;95217.13;;;12.75;95.60
8075;BME280;4080;42.676;23.372;2022-11-25T08:13:21;95228.81;;;13.03;95.15
8075;BME280;4080;42.676;23.372;2022-11-25T08:15:48;95240.03;;;13.29;91.83
8075;BME280;4080;42.676;23.372;2022-11-25T08:18:14;95232.13;;;13.53;90.91
8075;BME280;4080;42.676;23.372;2022-11-25T08:20:41;95240.84;;;13.82;91.75
8075;BME280;4080;42.676;23.372;2022-11-25T08:23:09;95235.84;;;14.23;88.34
8075;BME280;4080;42.676;23.372;2022-11-25T08:25:38;95242.94;;;14.28;86.43
8075;BME280;4080;42.676;23.372;2022-11-25T08:28:06;95240.53;;;14.08;87.59
8075;BME280;4080;42.676;23.372;2022-11-25T08:30:33;95244.41;;;14.39;88.17
8075;BME280;4080;42.676;23.372;2022-11-25T08:33:00;95249.97;;;14.62;85.17
8075;BME280;4080;42.676;23.372;2022-11-25T08:35:29;95249.38;;;14.65;82.67
8075;BME280;4080;42.676;23.372;2022-11-25T08:37:56;95246.16;;;14.68;84.39
8075;BME280;4080;42.676;23.372;2022-11-25T08:40:24;95241.00;;;14.57;82.68
8075;BME280;4080;42.676;23.372;2022-11-25T08:42:51;95229.78;;;14.42;84.84
8075;BME280;4080;42.676;23.372;2022-11-25T08:45:17;95238.16;;;14.30;84.63
8075;BME280;4080;42.676;23.372;2022-11-25T08:47:44;95243.22;;;14.50;84.71
8075;BME280;4080;42.676;23.372;2022-11-25T08:50:13;95235.81;;;14.66;84.17
8075;BME280;4080;42.676;23.372;2022-11-25T08:52:40;95232.31;;;14.89;83.21
8075;BME280;4080;42.676;23.372;2022-11-25T08:55:07;95239.31;;;14.99;81.65
8075;BME280;4080;42.676;23.372;2022-11-25T08:57:35;95238.41;;;15.09;81.70
8075;BME280;4080;42.676;23.372;2022-11-25T09:00:03;95238.91;;;15.25;80.01
8075;BME280;4080;42.676;23.372;2022-11-25T09:02:30;95233.78;;;15.14;80.56
8075;BME280;4080;42.676;23.372;2022-11-25T09:04:57;95233.50;;;14.97;80.95
8075;BME280;4080;42.676;23.372;2022-11-25T09:07:24;95225.28;;;14.80;81.86
8075;BME280;4080;42.676;23.372;2022-11-25T09:09:50;95229.72;;;14.66;83.21
8075;BME280;4080;42.676;23.372;2022-11-25T09:12:18;95221.25;;;14.64;81.82
8075;BME280;4080;42.676;23.372;2022-11-25T09:14:46;95232.97;;;14.63;83.77
8075;BME280;4080;42.676;23.372;2022-11-25T09:17:12;95231.59;;;14.84;83.58
8075;BME280;4080;42.676;23.372;2022-11-25T09:19:40;95231.78;;;15.06;81.69
8075;BME280;4080;42.676;23.372;2022-11-25T09:22:07;95234.00;;;14.99;79.14
8075;BME280;4080;42.676;23.372;2022-11-25T09:24:34;95235.38;;;14.97;81.10
8075;BME280;4080;42.676;23.372;2022-11-25T09:27:00;95243.91;;;15.12;80.35
8075;BME280;4080;42.676;23.372;2022-11-25T09:29:27;95234.91;;;14.76;81.00
8075;BME280;4080;42.676;23.372;2022-11-25T09:31:56;95236.41;;;14.63;81.88
8075;BME280;4080;42.676;23.372;2022-11-25T09:34:23;95219.59;;;14.68;82.43
8075;BME280;4080;42.676;23.372;2022-11-25T09:36:49;95238.97;;;14.87;81.79
8075;BME280;4080;42.676;23.372;2022-11-25T09:39:17;95240.47;;;14.93;81.34
8075;BME280;4080;42.676;23.372;2022-11-25T09:42:00;95243.50;;;15.05;81.39
8075;BME280;4080;42.676;23.372;2022-11-25T09:45:01;95241.56;;;15.25;80.47
8075;BME280;4080;42.676;23.372;2022-11-25T09:47:57;95251.06;;;15.31;78.86
8075;BME280;4080;42.676;23.372;2022-11-25T09:50:34;95234.69;;;15.23;78.94
8075;BME280;4080;42.676;23.372;2022-11-25T09:53:09;95245.75;;;15.31;77.31
8075;BME280;4080;42.676;23.372;2022-11-25T09:55:44;95240.50;;;15.26;77.74
8075;BME280;4080;42.676;23.372;2022-11-25T09:58:21;95241.09;;;15.22;76.94
8075;BME280;4080;42.676;23.372;2022-11-25T10:00:52;95222.88;;;14.97;77.38
8075;BME280;4080;42.676;23.372;2022-11-25T10:03:28;95231.50;;;14.89;79.15
8075;BME280;4080;42.676;23.372;2022-11-25T10:06:01;95237.84;;;14.74;79.80
8075;BME280;4080;42.676;23.372;2022-11-25T10:08:31;95233.66;;;14.87;80.92
8075;BME280;4080;42.676;23.372;2022-11-25T10:11:06;95225.78;;;15.01;79.19
8075;BME280;4080;42.676;23.372;2022-11-25T10:13:46;95240.47;;;14.93;78.53
8075;BME280;4080;42.676;23.372;2022-11-25T10:16:26;95239.28;;;14.48;79.73
8075;BME280;4080;42.676;23.372;2022-11-25T10:18:58;95224.06;;;14.11;82.00
8075;BME280;4080;42.676;23.372;2022-11-25T10:21:26;95235.34;;;14.21;82.19
8075;BME280;4080;42.676;23.372;2022-11-25T10:23:53;95234.84;;;14.19;81.59
8075;BME280;4080;42.676;23.372;2022-11-25T10:26:30;95234.91;;;14.14;81.84
8075;BME280;4080;42.676;23.372;2022-11-25T10:29:18;95225.59;;;14.17;81.82
8075;BME280;4080;42.676;23.372;2022-11-25T10:31:48;95223.00;;;14.12;82.76
8075;BME280;4080;42.676;23.372;2022-11-25T10:34:24;95225.69;;;14.07;83.20
8075;BME280;4080;42.676;23.372;2022-11-25T10:36:53;95225.75;;;14.02;83.83
8075;BME280;4080;42.676;23.372;2022-11-25T10:39:22;95232.31;;;13.85;83.17
8075;BME280;4080;42.676;23.372;2022-11-25T10:41:55;95242.78;;;13.48;84.15
8075;BME280;4080;42.676;23.372;2022-11-25T10:44:25;95231.63;;;13.51;83.26
8075;BME280;4080;42.676;23.372;2022-11-25T10:47:05;95227.94;;;13.18;83.50
8075;BME280;4080;42.676;23.372;2022-11-25T10:49:45;95241.03;;;12.99;85.61
8075;BME280;4080;42.676;23.372;2022-11-25T10:52:20;95240.16;;;12.74;88.03
8075;BME280;4080;42.676;23.372;2022-11-25T10:54:55;95235.28;;;12.92;87.44
8075;BME280;4080;42.676;23.372;2022-11-25T10:57:26;95242.72;;;12.85;87.55
8075;BME280;4080;42.676;23.372;2022-11-25T10:59:55;95243.06;;;12.73;87.10
8075;BME280;4080;42.676;23.372;2022-11-25T11:02:25;95132.28;;;11.63;87.52
8075;BME280;4080;42.676;23.372;2022-11-25T11:04:57;95245.28;;;12.01;90.17
8075;BME280;4080;42.676;23.372;2022-11-25T11:07:25;95248.53;;;11.78;92.24
8075;BME280;4080;42.676;23.372;2022-11-25T11:09:53;95251.97;;;11.58;93.82
8075;BME280;4080;42.676;23.372;2022-11-25T11:12:22;95251.22;;;11.42;94.49
8075;BME280;4080;42.676;23.372;2022-11-25T11:14:50;95252.28;;;11.26;94.85
8075;BME280;4080;42.676;23.372;2022-11-25T11:17:28;95252.31;;;11.16;96.14
8075;BME280;4080;42.676;23.372;2022-11-25T11:20:03;95239.88;;;11.01;97.81
8075;BME280;4080;42.676;23.372;2022-11-25T11:22:44;95234.88;;;10.74;99.14
8075;BME280;4080;42.676;23.372;2022-11-25T11:25:28;95242.75;;;10.69;100.00
8075;BME280;4080;42.676;23.372;2022-11-25T11:27:55;95242.25;;;10.98;100.00
8075;BME280;4080;42.676;23.372;2022-11-25T11:30:27;95243.31;;;10.97;100.00
8075;BME280;4080;42.676;23.372;2022-11-25T11:33:00;95251.00;;;11.08;99.95
8075;BME280;4080;42.676;23.372;2022-11-25T11:35:41;95238.31;;;10.95;99.35
8075;BME280;4080;42.676;23.372;2022-11-25T11:38:25;95253.63;;;10.78;100.00
8075;BME280;4080;42.676;23.372;2022-11-25T11:40:57;95256.00;;;10.84;100.00
8075;BME280;4080;42.676;23.372;2022-11-25T11:43:40;95258.63;;;10.84;100.00
8075;BME280;4080;42.676;23.372;2022-11-25T11:46:21;95258.88;;;10.93;100.00
8075;BME280;4080;42.676;23.372;2022-11-25T11:48:57;95240.41;;;10.83;100.00
8075;BME280;4080;42.676;23.372;2022-11-25T11:51:33;95262.84;;;10.75;100.00
8075;BME280;4080;42.676;23.372;2022-11-25T11:54:07;95250.16;;;10.62;100.00
8075;BME280;4080;42.676;23.372;2022-11-25T11:56:38;95259.38;;;10.70;100.00
8075;BME280;4080;42.676;23.372;2022-11-25T12:02:14;95262.00;;;10.60;100.00
8075;BME280;4080;42.676;23.372;2022-11-25T12:04:44;95253.03;;;10.45;100.00
8075;BME280;4080;42.676;23.372;2022-11-25T12:07:19;95233.19;;;10.22;100.00
8075;BME280;4080;42.676;23.372;2022-11-25T12:09:54;95257.72;;;10.38;100.00
8075;BME280;4080;42.676;23.372;2022-11-25T12:12:31;95255.59;;;10.30;100.00
8075;BME280;4080;42.676;23.372;2022-11-25T12:15:04;95170.25;;;9.74;100.00
8075;BME280;4080;42.676;23.372;2022-11-25T12:17:40;95257.41;;;10.19;100.00
8075;BME280;4080;42.676;23.372;2022-11-25T12:20:15;95270.78;;;10.08;100.00
8075;BME280;4080;42.676;23.372;2022-11-25T12:22:49;95266.78;;;9.95;100.00
8075;BME280;4080;42.676;23.372;2022-11-25T12:25:20;95270.19;;;9.85;100.00
8075;BME280;4080;42.676;23.372;2022-11-25T12:27:53;95219.69;;;9.51;100.00
8075;BME280;4080;42.676;23.372;2022-11-25T12:30:24;95268.78;;;9.73;100.00
8075;BME280;4080;42.676;23.372;2022-11-25T12:33:04;95259.78;;;9.63;100.00
8075;BME280;4080;42.676;23.372;2022-11-25T12:35:45;95260.25;;;9.55;100.00
8075;BME280;4080;42.676;23.372;2022-11-25T12:38:26;95264.13;;;9.43;100.00
8075;BME280;4080;42.676;23.372;2022-11-25T12:41:01;95236.41;;;9.30;100.00
8075;BME280;4080;42.676;23.372;2022-11-25T12:43:34;95257.00;;;9.43;100.00
8075;BME280;4080;42.676;23.372;2022-11-25T12:46:11;95259.66;;;9.48;100.00
8075;BME280;4080;42.676;23.372;2022-11-25T12:48:41;95261.31;;;9.54;100.00
8075;BME280;4080;42.676;23.372;2022-11-25T12:51:16;95258.69;;;9.54;100.00
8075;BME280;4080;42.676;23.372;2022-11-25T12:53:55;95249.94;;;9.49;100.00
8075;BME280;4080;42.676;23.372;2022-11-25T12:56:36;95251.22;;;9.46;100.00
8075;BME280;4080;42.676;23.372;2022-11-25T12:59:27;95242.00;;;9.44;100.00
8075;BME280;4080;42.676;23.372;2022-11-25T13:02:09;95240.13;;;9.39;100.00
8075;BME280;4080;42.676;23.372;2022-11-25T13:04:57;95246.44;;;9.38;100.00
8075;BME280;4080;42.676;23.372;2022-11-25T13:07:33;95241.69;;;9.35;100.00
8075;BME280;4080;42.676;23.372;2022-11-25T13:13:21;95237.41;;;9.24;100.00
8075;BME280;4080;42.676;23.372;2022-11-25T13:15:51;95236.03;;;9.16;100.00
8075;BME280;4080;42.676;23.372;2022-11-25T13:18:21;95172.84;;;8.74;100.00
8075;BME280;4080;42.676;23.372;2022-11-25T13:20:49;95230.69;;;9.06;100.00
8075;BME280;4080;42.676;23.372;2022-11-25T13:23:31;95213.41;;;8.83;100.00
8075;BME280;4080;42.676;23.372;2022-11-25T13:26:32;95237.22;;;8.98;100.00
8075;BME280;4080;42.676;23.372;2022-11-25T13:32:35;95240.38;;;8.95;100.00
8075;BME280;4080;42.676;23.372;2022-11-25T13:35:48;95254.03;;;8.92;100.00